Claverack, New York
Current Conditions -  °F | °C
As of 9:54 PM on Sunday 23 Nov 2014 (Local Time) from KPSF Reporting Station
Clear Clear  
Wind Chill: 35°   Ceiling: Unl
Heat Index: 35°   Visibility: 8mi
Dew Point: 33°   Wind: 3mph
Humidity: 92%   Direction: 360°N
Pressure: 30.04"   Gusts: NA
Location:  42.23°N, 73.73°W
Report Text: KPSF 240254Z AUTO 36003KT 8SM CLR 02/01 A3004 RMK AO2 SLP175 T00170006 58007
Loading
Personal Weather Stations






























Interactive Weather Map New forecast layout! Learn more

10-Day Weather Forecast

Advertisements
Track Severe Weather on mobile